Terminal Aerodrome Forecast
Issued by NWS Caribou, ME

Home | Current Version | Previous Version | Text Only | Print | Product List | Glossary On
Versions: 1 2 3 4 5 6 7 8 9 10 11 12 13 14 15 16 17 18
000
FTUS41 KCAR 272344
TAFBGR
TAF
KBGR 272344Z 2800/2824 32010KT P6SM BKN100
     FM280400 02006KT P6SM VCSH OVC025
     FM280600 02007KT P6SM SCT007 OVC020
     FM281000 02010KT 6SM -SHSN OVC007
     FM281400 01010G20KT P6SM SCT007 OVC020=

USA.gov is the U.S. government's official web portal to all federal, state and local government web resources and services.